Time;durP1;ratioP1;P1;durP2;ratioP2;P2;SDS_P1;SDS_P2;PMS_P1;PMS_P2;Temp;Humidity;BMP_temperature;BMP_pressure;BME280_temperature;BME280_humidity;BME280_pressure;Samples;Min_cycle;Max_cycle;Signal;HPM_P1;HPM_P2
2023/08/02 00:02:13;;;;;;;0.55;0.20;;;;;;;13.73;58.40;99906.75;4978144;28;20052;-73
2023/08/02 00:04:38;;;;;;;1.67;0.20;;;;;;;13.77;58.83;99907.41;4953870;28;20049;-74
2023/08/02 00:07:04;;;;;;;4.05;0.73;;;;;;;13.85;58.20;99915.59;4977828;28;20045;-75
2023/08/02 00:09:31;;;;;;;0.98;0.40;;;;;;;13.73;58.82;99919.06;4957189;28;20065;-74
2023/08/02 00:11:57;;;;;;;4.13;0.30;;;;;;;13.77;58.70;99911.81;4976111;28;20096;-75
2023/08/02 00:14:22;;;;;;;1.58;0.63;;;;;;;13.93;58.34;99909.81;4972868;28;20050;-73
2023/08/02 00:16:48;;;;;;;1.70;0.30;;;;;;;13.82;59.20;99917.59;4975592;28;20489;-74
2023/08/02 00:19:14;;;;;;;2.17;0.20;;;;;;;13.86;58.78;99905.94;4977900;28;20042;-75
2023/08/02 00:21:40;;;;;;;2.60;0.25;;;;;;;13.99;58.62;99911.19;4962270;28;20061;-76
2023/08/02 00:24:05;;;;;;;1.95;0.20;;;;;;;13.98;59.16;99912.94;4981705;28;20859;-74
2023/08/02 00:26:32;;;;;;;4.05;0.40;;;;;;;13.98;59.11;99910.31;4979697;28;20041;-75
2023/08/02 00:28:57;;;;;;;6.50;0.50;;;;;;;13.99;58.90;99917.28;4963161;28;20042;-76
2023/08/02 00:31:22;;;;;;;3.60;0.43;;;;;;;13.93;59.81;99915.91;4966256;28;20101;-74
2023/08/02 00:33:48;;;;;;;3.65;0.47;;;;;;;13.85;59.94;99915.59;4974653;28;20057;-74
2023/08/02 00:36:13;;;;;;;3.00;0.32;;;;;;;13.91;59.80;99915.16;4975330;28;20039;-78
2023/08/02 00:38:39;;;;;;;4.35;0.40;;;;;;;13.99;59.63;99913.81;4968882;28;20046;-74
2023/08/02 00:41:05;;;;;;;2.53;0.30;;;;;;;13.66;60.95;99915.19;4961061;28;20038;-73
2023/08/02 00:43:42;;;;;;;1.33;0.45;;;;;;;13.91;60.17;99909.06;4966956;28;20143;-75
2023/08/02 00:46:10;;;;;;;5.65;0.60;;;;;;;13.85;60.43;99912.13;4959456;28;20038;-75
2023/08/02 00:48:37;;;;;;;2.88;0.65;;;;;;;13.89;60.52;99910.97;4952924;28;20180;-76
2023/08/02 00:51:03;;;;;;;1.92;0.77;;;;;;;13.78;60.79;99910.88;4974543;28;20819;-75
2023/08/02 00:53:29;;;;;;;6.75;0.90;;;;;;;13.47;61.86;99916.41;4950985;28;20042;-75
2023/08/02 00:55:56;;;;;;;3.90;0.85;;;;;;;13.61;61.57;99912.88;4967981;28;20038;-75
2023/08/02 00:58:21;;;;;;;1.38;0.40;;;;;;;13.92;60.44;99914.22;4972257;28;20046;-74
2023/08/02 01:00:47;;;;;;;2.05;1.05;;;;;;;13.78;60.67;99906.44;4972564;28;20567;-74
2023/08/02 01:03:17;;;;;;;4.63;0.60;;;;;;;13.99;60.00;99916.44;4974010;28;20932;-75
2023/08/02 01:05:50;;;;;;;4.22;0.80;;;;;;;13.97;59.96;99913.06;4957390;28;20035;-76
2023/08/02 01:08:28;;;;;;;4.70;0.60;;;;;;;13.51;61.56;99909.97;4954230;28;20927;-75
2023/08/02 01:11:15;;;;;;;5.55;0.63;;;;;;;13.58;61.58;99907.81;4941930;28;20034;-74
2023/08/02 01:13:48;;;;;;;2.78;0.73;;;;;;;13.59;61.45;99913.94;4937471;28;20093;-76
2023/08/02 01:16:16;;;;;;;2.28;0.98;;;;;;;13.53;61.66;99918.59;4962208;28;20035;-76
2023/08/02 01:18:42;;;;;;;5.43;0.88;;;;;;;13.52;61.72;99923.97;4962759;28;20085;-75
2023/08/02 01:21:07;;;;;;;1.33;0.60;;;;;;;13.91;60.52;99922.22;4972604;28;20064;-74
2023/08/02 01:23:33;;;;;;;2.40;1.02;;;;;;;13.84;60.57;99913.91;4954419;28;20043;-74
2023/08/02 01:26:02;;;;;;;7.35;1.02;;;;;;;13.88;60.55;99917.19;4957152;28;20089;-75
2023/08/02 01:28:33;;;;;;;5.93;1.10;;;;;;;13.89;60.52;99914.41;4955450;28;20060;-74
2023/08/02 01:31:00;;;;;;;5.57;1.08;;;;;;;13.88;60.55;99917.19;4975154;28;20039;-74
2023/08/02 01:33:27;;;;;;;1.70;0.52;;;;;;;14.09;59.97;99914.81;4953457;28;20054;-74
2023/08/02 01:35:53;;;;;;;1.38;0.70;;;;;;;13.99;60.11;99905.94;4969931;28;20589;-73
2023/08/02 01:38:18;;;;;;;1.77;0.80;;;;;;;13.90;59.86;99903.00;4972339;28;20116;-75
2023/08/02 01:40:44;;;;;;;5.25;0.93;;;;;;;13.93;59.99;99894.88;4969925;28;20122;-74
2023/08/02 01:43:09;;;;;;;2.60;0.85;;;;;;;13.85;59.81;99899.84;4973610;28;20035;-73
2023/08/02 01:45:35;;;;;;;5.60;1.10;;;;;;;13.78;60.19;99898.56;4959800;28;20034;-75
2023/08/02 01:48:01;;;;;;;2.20;0.65;;;;;;;13.80;60.14;99901.94;4964388;28;20504;-77
2023/08/02 01:50:27;;;;;;;5.55;0.95;;;;;;;13.60;60.48;99897.22;4974317;28;20050;-75
2023/08/02 01:52:52;;;;;;;4.78;1.10;;;;;;;13.14;61.51;99910.75;4972271;28;21481;-75
2023/08/02 01:55:18;;;;;;;2.08;0.85;;;;;;;13.56;60.02;99907.03;4979358;28;20400;-74
2023/08/02 01:57:44;;;;;;;6.80;0.70;;;;;;;13.58;59.99;99899.94;4958140;28;20774;-77
2023/08/02 02:00:12;;;;;;;4.82;1.23;;;;;;;13.34;60.68;99899.81;4961102;28;20030;-75
2023/08/02 02:02:42;;;;;;;4.65;1.05;;;;;;;12.98;61.64;99882.94;4987814;28;20031;-75
2023/08/02 02:05:10;;;;;;;5.65;0.95;;;;;;;12.85;61.76;99882.91;4959692;28;20045;-75
2023/08/02 02:07:36;;;;;;;2.60;1.02;;;;;;;13.19;60.61;99885.06;4959974;28;20779;-75
2023/08/02 02:10:01;;;;;;;2.42;0.80;;;;;;;13.27;60.12;99888.88;4960520;28;20038;-75
2023/08/02 02:12:27;;;;;;;2.10;0.60;;;;;;;13.27;60.06;99878.38;4975155;28;20069;-75
2023/08/02 02:14:52;;;;;;;1.63;0.60;;;;;;;13.38;59.75;99882.88;4991233;28;20548;-74
2023/08/02 02:17:18;;;;;;;2.08;0.85;;;;;;;13.44;59.46;99879.84;4977737;28;20030;-75
2023/08/02 02:19:44;;;;;;;9.95;1.48;;;;;;;13.02;60.74;99881.78;4972668;28;20120;-73
2023/08/02 02:22:10;;;;;;;3.88;0.88;;;;;;;13.17;59.91;99879.09;4975219;28;20038;-74
2023/08/02 02:24:35;;;;;;;1.80;0.70;;;;;;;13.17;59.82;99884.34;4974276;28;20185;-74
2023/08/02 02:27:01;;;;;;;4.55;0.90;;;;;;;12.93;60.52;99879.75;4974066;28;20036;-75
2023/08/02 02:29:26;;;;;;;6.38;0.88;;;;;;;12.80;61.02;99881.50;4956732;28;20541;-74
2023/08/02 02:31:52;;;;;;;1.77;0.50;;;;;;;13.01;60.12;99884.50;4957581;28;20525;-74
2023/08/02 02:34:17;;;;;;;2.13;0.50;;;;;;;13.06;59.90;99885.88;4958665;28;20042;-74
2023/08/02 02:36:45;;;;;;;7.28;1.45;;;;;;;12.82;61.21;99880.47;4974102;28;20041;-74
2023/08/02 02:39:11;;;;;;;2.22;1.20;;;;;;;12.68;61.82;99885.75;4975143;28;20066;-74
2023/08/02 02:41:38;;;;;;;6.50;1.38;;;;;;;12.90;61.27;99882.59;4975311;28;20042;-74
2023/08/02 02:44:04;;;;;;;4.93;0.85;;;;;;;13.17;60.45;99886.97;4975320;28;20073;-74
2023/08/02 02:46:30;;;;;;;4.32;1.73;;;;;;;13.13;60.52;99880.22;4978118;28;20065;-74
2023/08/02 02:48:55;;;;;;;3.00;1.30;;;;;;;12.81;61.54;99870.09;4969760;28;20039;-74
2023/08/02 02:51:21;;;;;;;2.60;0.82;;;;;;;12.73;61.88;99877.59;4972543;28;20026;-74
2023/08/02 02:53:46;;;;;;;2.28;0.93;;;;;;;12.51;62.32;99871.06;4954185;28;20761;-74
2023/08/02 02:56:12;;;;;;;7.22;1.17;;;;;;;12.88;61.66;99872.19;4974749;28;20735;-74
2023/08/02 02:58:37;;;;;;;2.88;0.95;;;;;;;12.84;61.45;99870.72;4969783;28;20038;-76
2023/08/02 03:01:06;;;;;;;3.67;0.80;;;;;;;13.14;60.85;99867.03;4974258;28;20426;-73
2023/08/02 03:03:31;;;;;;;1.35;0.80;;;;;;;13.04;61.19;99861.53;4968424;28;20077;-75
2023/08/02 03:05:57;;;;;;;7.07;0.90;;;;;;;12.92;61.64;99859.72;4959623;28;20038;-75
2023/08/02 03:08:22;;;;;;;1.23;0.73;;;;;;;12.95;61.46;99862.13;4953244;28;20245;-74
2023/08/02 03:10:48;;;;;;;2.97;0.90;;;;;;;12.92;61.59;99859.72;4970141;28;20072;-75
2023/08/02 03:13:13;;;;;;;1.33;0.57;;;;;;;13.15;60.66;99862.59;4987570;28;20100;-75
2023/08/02 03:15:39;;;;;;;2.20;0.60;;;;;;;12.93;61.35;99869.28;4968289;28;20161;-72
2023/08/02 03:18:04;;;;;;;3.60;0.70;;;;;;;13.18;60.59;99863.22;4970359;28;21340;-74
2023/08/02 03:20:30;;;;;;;5.72;1.27;;;;;;;13.17;60.39;99865.97;4971716;28;20116;-75
2023/08/02 03:22:55;;;;;;;8.02;1.60;;;;;;;12.84;61.17;99865.47;4970479;28;20589;-75
2023/08/02 03:25:21;;;;;;;5.22;1.80;;;;;;;12.57;62.16;99847.09;4972673;28;20034;-75
2023/08/02 03:27:46;;;;;;;2.03;0.93;;;;;;;12.85;61.00;99846.19;4970747;28;20372;-75
2023/08/02 03:30:11;;;;;;;3.45;2.03;;;;;;;13.04;60.58;99850.19;4979275;28;20040;-76
2023/08/02 03:32:37;;;;;;;2.10;1.00;;;;;;;12.99;60.53;99847.88;4973778;28;20852;-75
2023/08/02 03:35:03;;;;;;;3.67;1.23;;;;;;;12.96;60.56;99836.75;4977697;28;20042;-73
2023/08/02 03:37:28;;;;;;;1.42;0.98;;;;;;;13.05;59.94;99841.41;4989675;28;20034;-73
2023/08/02 03:39:54;;;;;;;3.83;0.77;;;;;;;12.87;60.30;99832.94;4977585;28;20284;-73
2023/08/02 03:42:19;;;;;;;2.00;1.05;;;;;;;12.70;60.76;99829.66;4974711;28;20509;-74
2023/08/02 03:44:44;;;;;;;3.88;1.17;;;;;;;12.88;60.13;99825.00;4959224;28;20591;-75
2023/08/02 03:47:10;;;;;;;5.25;1.27;;;;;;;12.87;60.01;99811.97;4967737;28;20089;-76
2023/08/02 03:49:36;;;;;;;3.33;1.15;;;;;;;12.77;60.46;99811.75;4964824;28;20707;-74
2023/08/02 03:52:02;;;;;;;3.38;0.95;;;;;;;12.88;59.81;99813.66;4978513;28;20456;-75
2023/08/02 03:54:28;;;;;;;3.70;0.52;;;;;;;12.93;60.08;99811.56;4965647;28;20042;-75
2023/08/02 03:56:53;;;;;;;4.13;1.17;;;;;;;13.02;59.88;99810.13;4982975;28;20041;-74
2023/08/02 03:59:19;;;;;;;1.73;1.08;;;;;;;13.10;59.64;99807.81;4964492;28;20173;-75
2023/08/02 04:01:44;;;;;;;12.23;1.48;;;;;;;13.13;59.70;99796.28;4972824;28;20049;-73
2023/08/02 04:04:10;;;;;;;5.57;1.00;;;;;;;13.23;59.62;99799.97;4998721;28;20042;-73
2023/08/02 04:06:35;;;;;;;2.35;0.98;;;;;;;13.33;59.42;99803.63;4999792;28;20041;-73
2023/08/02 04:09:01;;;;;;;2.22;1.25;;;;;;;13.43;59.15;99804.69;5000431;28;20138;-73
2023/08/02 04:11:26;;;;;;;2.45;1.10;;;;;;;13.47;59.19;99808.78;4984915;28;20026;-73
2023/08/02 04:13:52;;;;;;;2.50;0.95;;;;;;;13.51;58.93;99802.34;4997185;28;20022;-73
2023/08/02 04:16:17;;;;;;;5.07;1.23;;;;;;;13.50;58.78;99803.31;4995137;28;20022;-73
2023/08/02 04:18:43;;;;;;;2.63;1.40;;;;;;;13.66;59.01;99815.41;4974690;28;20030;-74
2023/08/02 04:21:08;;;;;;;1.83;1.30;;;;;;;13.59;58.90;99812.38;4995194;28;20046;-74
2023/08/02 04:23:34;;;;;;;6.25;1.23;;;;;;;13.65;58.54;99813.72;4993911;28;20101;-73
2023/08/02 04:25:59;;;;;;;3.15;1.42;;;;;;;13.54;58.94;99801.31;4978100;28;20098;-73
2023/08/02 04:28:25;;;;;;;3.30;1.05;;;;;;;13.74;58.61;99797.31;4975833;28;20054;-74
2023/08/02 04:30:51;;;;;;;2.40;1.08;;;;;;;13.93;58.74;99794.22;4977856;28;20046;-73
2023/08/02 04:33:17;;;;;;;6.05;1.10;;;;;;;14.02;58.38;99788.31;4994149;28;20034;-73
2023/08/02 04:35:42;;;;;;;5.53;1.20;;;;;;;14.00;57.92;99784.13;4998326;28;20038;-74
2023/08/02 04:38:07;;;;;;;8.13;1.38;;;;;;;14.00;58.17;99782.31;4978083;28;20034;-73
2023/08/02 04:40:39;;;;;;;1.90;1.23;;;;;;;14.03;57.96;99781.25;4988176;28;20046;-75
2023/08/02 04:43:05;;;;;;;6.70;2.05;;;;;;;14.14;57.68;99779.56;4984456;28;20161;-74
2023/08/02 04:45:30;;;;;;;5.65;2.20;;;;;;;14.14;57.56;99771.69;4975221;28;20117;-74
2023/08/02 04:47:56;;;;;;;5.05;1.48;;;;;;;14.21;57.57;99766.81;4965674;28;20053;-75
2023/08/02 04:50:21;;;;;;;3.58;0.50;;;;;;;14.29;57.81;99772.31;4960036;28;20435;-76
2023/08/02 04:52:47;;;;;;;4.05;1.77;;;;;;;14.34;57.61;99758.84;4978962;28;20562;-75
2023/08/02 04:55:12;;;;;;;6.22;0.95;;;;;;;14.41;57.46;99759.25;4978155;28;20038;-77
2023/08/02 04:57:38;;;;;;;3.53;1.20;;;;;;;14.33;56.92;99758.00;4977960;28;20724;-76
2023/08/02 05:00:05;;;;;;;4.78;0.85;;;;;;;14.40;57.21;99757.56;4977084;28;20038;-76
2023/08/02 05:02:33;;;;;;;6.07;1.25;;;;;;;14.35;57.16;99750.03;4961249;28;20129;-77
2023/08/02 05:05:02;;;;;;;1.85;1.20;;;;;;;14.26;56.79;99742.81;4975083;28;20034;-74
2023/08/02 05:07:27;;;;;;;3.53;1.10;;;;;;;14.24;56.87;99739.47;4973492;28;20910;-75
2023/08/02 05:09:53;;;;;;;5.22;0.82;;;;;;;14.35;57.11;99729.00;4978895;28;20121;-74
2023/08/02 05:12:18;;;;;;;6.82;1.48;;;;;;;14.14;57.74;99744.53;4973353;28;20145;-75
2023/08/02 05:14:43;;;;;;;3.20;1.05;;;;;;;14.33;57.02;99737.00;4976524;28;20128;-74
2023/08/02 05:17:09;;;;;;;3.53;1.05;;;;;;;14.41;57.03;99739.09;4975665;28;20069;-74
2023/08/02 05:19:35;;;;;;;3.85;1.55;;;;;;;14.14;57.31;99734.03;4973784;28;20817;-74
2023/08/02 05:22:00;;;;;;;7.20;1.20;;;;;;;14.53;56.38;99745.22;4974638;28;20070;-74
2023/08/02 05:24:26;;;;;;;7.50;1.48;;;;;;;14.57;56.32;99741.41;4974836;28;20035;-74
2023/08/02 05:26:52;;;;;;;8.27;1.52;;;;;;;14.55;56.57;99738.91;4973402;28;20515;-74
2023/08/02 05:29:17;;;;;;;2.70;1.45;;;;;;;14.72;55.93;99753.41;4968982;28;20039;-74
2023/08/02 05:31:43;;;;;;;3.85;1.30;;;;;;;14.76;55.90;99754.84;4958832;28;20038;-74
2023/08/02 05:34:08;;;;;;;3.53;1.27;;;;;;;14.61;55.94;99756.00;4975714;28;20042;-74
2023/08/02 05:36:34;;;;;;;8.40;2.17;;;;;;;14.24;56.46;99742.94;4976401;28;20152;-74
2023/08/02 05:38:59;;;;;;;4.63;2.70;;;;;;;14.30;56.82;99731.97;4959295;28;20050;-74
2023/08/02 05:41:25;;;;;;;5.82;1.80;;;;;;;14.35;57.12;99742.97;4966086;28;20238;-76
2023/08/02 05:43:50;;;;;;;6.28;2.10;;;;;;;14.18;56.71;99727.59;4972362;28;20495;-75
2023/08/02 05:46:16;;;;;;;7.13;1.70;;;;;;;14.31;57.00;99722.28;4973975;28;20129;-76
2023/08/02 05:48:41;;;;;;;4.60;1.70;;;;;;;14.47;56.80;99727.28;4976402;28;20971;-74
2023/08/02 05:51:07;;;;;;;6.25;1.90;;;;;;;14.31;56.68;99720.50;4980380;28;20112;-77
2023/08/02 05:53:36;;;;;;;6.90;1.98;;;;;;;14.54;56.15;99717.97;4961780;28;20034;-75
2023/08/02 05:56:02;;;;;;;5.68;1.90;;;;;;;14.49;56.44;99720.13;4977443;28;20053;-77
2023/08/02 05:58:28;;;;;;;6.55;1.75;;;;;;;14.60;55.90;99716.69;4970475;28;20047;-76
2023/08/02 06:00:53;;;;;;;11.75;2.10;;;;;;;14.62;56.00;99702.47;4971881;28;20069;-75
2023/08/02 06:03:19;;;;;;;11.80;2.58;;;;;;;14.35;56.79;99702.72;4967144;28;20053;-75
2023/08/02 06:05:44;;;;;;;8.57;2.63;;;;;;;14.68;56.05;99691.47;4971621;28;20131;-74
2023/08/02 06:08:10;;;;;;;2.88;1.42;;;;;;;14.92;55.12;99685.28;4969371;28;20827;-76
2023/08/02 06:10:36;;;;;;;15.35;2.45;;;;;;;14.82;55.26;99681.69;4951867;28;20039;-75
2023/08/02 06:13:04;;;;;;;11.43;2.95;;;;;;;14.83;54.86;99686.81;4954691;28;20050;-76
2023/08/02 06:15:30;;;;;;;4.70;2.13;;;;;;;14.59;55.77;99676.41;4977572;28;20046;-77
2023/08/02 06:17:56;;;;;;;10.50;2.13;;;;;;;14.79;54.54;99671.41;4970577;28;20093;-74
2023/08/02 06:20:21;;;;;;;9.15;1.90;;;;;;;14.76;54.91;99670.69;4956237;28;20080;-75
2023/08/02 06:22:47;;;;;;;10.65;2.05;;;;;;;15.11;54.54;99663.66;4972336;28;20061;-76
2023/08/02 06:25:12;;;;;;;7.85;2.20;;;;;;;15.37;53.85;99665.09;4975336;28;20098;-75
2023/08/02 06:27:38;;;;;;;9.77;2.20;;;;;;;15.37;53.69;99664.25;4956378;28;20857;-76
2023/08/02 06:30:04;;;;;;;14.13;3.10;;;;;;;15.41;52.91;99649.88;4974890;28;20198;-75
2023/08/02 06:32:35;;;;;;;12.93;2.63;;;;;;;15.34;53.51;99659.22;4971878;28;20034;-75
2023/08/02 06:35:02;;;;;;;7.20;1.83;;;;;;;15.49;53.07;99652.75;4990725;28;20037;-73
2023/08/02 06:37:27;;;;;;;7.18;2.28;;;;;;;15.24;53.38;99645.09;4959210;28;20058;-76
2023/08/02 06:39:53;;;;;;;10.80;2.17;;;;;;;15.27;53.38;99643.09;4962333;28;20467;-76
2023/08/02 06:42:19;;;;;;;7.88;2.20;;;;;;;14.96;53.52;99642.81;4979066;28;20129;-74
2023/08/02 06:44:44;;;;;;;9.30;2.55;;;;;;;15.03;53.38;99643.19;4959075;28;20453;-75
2023/08/02 06:47:10;;;;;;;6.03;2.03;;;;;;;15.30;53.10;99637.56;4972940;28;20183;-76
2023/08/02 06:49:35;;;;;;;2.80;1.60;;;;;;;15.20;52.54;99631.34;4972959;28;20038;-76
2023/08/02 06:52:01;;;;;;;3.35;2.22;;;;;;;15.23;52.69;99625.84;4961237;28;20671;-75
2023/08/02 06:54:27;;;;;;;9.32;2.70;;;;;;;15.17;52.39;99627.16;4979953;28;20050;-77
2023/08/02 06:56:52;;;;;;;8.73;2.33;;;;;;;15.50;52.71;99621.97;4979280;28;20388;-74
2023/08/02 06:59:18;;;;;;;6.72;2.58;;;;;;;15.39;52.77;99614.94;4963183;28;20039;-76
2023/08/02 07:01:45;;;;;;;8.48;2.50;;;;;;;15.75;52.55;99619.03;4963148;28;20150;-78
2023/08/02 07:04:11;;;;;;;9.75;2.92;;;;;;;15.85;51.46;99611.19;4993762;28;20054;-75
2023/08/02 07:06:36;;;;;;;6.25;2.08;;;;;;;16.26;51.43;99609.56;4963171;28;20047;-74
2023/08/02 07:09:02;;;;;;;12.73;3.58;;;;;;;16.25;50.13;99599.19;4956267;28;20050;-75
2023/08/02 07:11:28;;;;;;;6.88;3.15;;;;;;;16.51;50.15;99607.50;4975545;28;20072;-74
2023/08/02 07:13:54;;;;;;;8.73;2.72;;;;;;;16.71;50.32;99593.47;4974066;28;20043;-75
2023/08/02 07:16:19;;;;;;;5.90;2.25;;;;;;;17.53;48.46;99594.28;4963296;28;20074;-74
2023/08/02 07:18:45;;;;;;;8.75;2.80;;;;;;;18.22;46.09;99602.06;4977541;28;20062;-75
2023/08/02 07:21:10;;;;;;;5.88;2.25;;;;;;;18.28;46.00;99598.03;4979956;28;20038;-76
2023/08/02 07:23:36;;;;;;;9.98;3.60;;;;;;;19.70;42.73;99586.22;4983636;28;20051;-75
2023/08/02 07:26:04;;;;;;;7.07;1.98;;;;;;;20.60;40.02;99585.22;4976707;28;20094;-75
2023/08/02 07:28:30;;;;;;;10.63;2.05;;;;;;;20.44;39.42;99581.47;4954438;28;20043;-76
2023/08/02 07:31:10;;;;;;;6.95;1.75;;;;;;;19.75;42.62;99580.47;4977045;28;20867;-75
2023/08/02 07:33:35;;;;;;;11.27;2.38;;;;;;;19.58;42.19;99582.13;4978256;28;20185;-74
2023/08/02 07:36:02;;;;;;;6.30;1.67;;;;;;;18.86;43.39;99587.25;4980762;28;20145;-75
2023/08/02 07:38:28;;;;;;;4.82;1.63;;;;;;;18.84;44.11;99580.44;4977171;28;20048;-75
2023/08/02 07:40:54;;;;;;;5.80;1.55;;;;;;;18.72;44.48;99571.00;4978379;28;20133;-74
2023/08/02 07:43:19;;;;;;;7.53;1.75;;;;;;;19.01;44.02;99571.75;4960851;28;20610;-75
2023/08/02 07:45:45;;;;;;;6.95;2.17;;;;;;;18.22;45.06;99558.94;4978243;28;20100;-75
2023/08/02 07:48:10;;;;;;;6.57;2.60;;;;;;;18.14;45.37;99569.34;4977450;28;20042;-75
2023/08/02 07:50:36;;;;;;;5.93;2.33;;;;;;;17.87;46.47;99568.25;4978160;28;20169;-77
2023/08/02 07:53:02;;;;;;;4.72;1.92;;;;;;;18.41;45.81;99558.06;4982259;28;20042;-77
2023/08/02 07:55:27;;;;;;;5.35;1.58;;;;;;;18.53;46.34;99558.69;4968782;28;20066;-76
2023/08/02 07:57:53;;;;;;;6.05;2.42;;;;;;;18.63;44.44;99556.81;4965582;28;20042;-80
2023/08/02 08:00:19;;;;;;;6.80;2.38;;;;;;;19.08;44.58;99542.84;4980235;28;20077;-78
2023/08/02 08:02:44;;;;;;;7.43;1.83;;;;;;;20.24;44.00;99548.16;4977073;28;20042;-76
2023/08/02 08:05:10;;;;;;;6.40;1.55;;;;;;;20.70;41.21;99540.78;4961985;28;20077;-77
2023/08/02 08:07:35;;;;;;;2.97;1.35;;;;;;;20.92;41.05;99526.13;4978200;28;20066;-77
2023/08/02 08:10:02;;;;;;;5.70;2.22;;;;;;;19.93;41.27;99519.44;4981190;28;20093;-78
2023/08/02 08:12:27;;;;;;;9.38;2.28;;;;;;;18.89;42.73;99510.19;4963789;28;20046;-77
2023/08/02 08:14:53;;;;;;;9.82;2.42;;;;;;;18.46;44.43;99530.16;4964482;28;20085;-79
2023/08/02 08:17:18;;;;;;;6.97;2.10;;;;;;;18.39;45.73;99528.25;4963729;28;20042;-78
2023/08/02 08:19:44;;;;;;;6.00;2.67;;;;;;;18.25;45.04;99524.25;4962529;28;20038;-76
2023/08/02 08:22:09;;;;;;;5.05;3.13;;;;;;;19.11;44.75;99518.72;4979571;28;20149;-77
2023/08/02 08:24:35;;;;;;;4.97;2.50;;;;;;;19.27;42.84;99518.03;4979380;28;20042;-79
2023/08/02 08:27:00;;;;;;;6.15;2.08;;;;;;;18.76;43.51;99514.16;4963218;28;20664;-75
2023/08/02 08:29:26;;;;;;;5.63;1.50;;;;;;;18.70;43.93;99507.66;4973146;28;20038;-75
2023/08/02 08:31:54;;;;;;;5.88;1.40;;;;;;;18.74;43.29;99502.88;4976890;28;20039;-74
2023/08/02 08:34:20;;;;;;;6.15;1.67;;;;;;;18.84;43.84;99507.13;4956837;28;20070;-74
2023/08/02 08:36:46;;;;;;;5.22;1.70;;;;;;;18.99;43.60;99499.56;4992759;28;20045;-77
2023/08/02 08:39:12;;;;;;;4.20;1.02;;;;;;;18.87;43.32;99483.03;4982920;28;20044;-75
2023/08/02 08:41:38;;;;;;;5.78;1.73;;;;;;;19.09;43.29;99489.72;4981548;28;20812;-76
2023/08/02 08:44:03;;;;;;;3.05;1.02;;;;;;;18.89;43.87;99488.19;4966246;28;20057;-79
2023/08/02 08:46:33;;;;;;;7.03;1.67;;;;;;;18.95;43.31;99477.00;4979788;28;20045;-75
2023/08/02 08:49:00;;;;;;;5.22;1.38;;;;;;;18.67;43.18;99468.22;4967903;28;20047;-77
2023/08/02 08:51:27;;;;;;;8.45;1.25;;;;;;;17.91;44.93;99466.56;4944743;28;20049;-78
2023/08/02 08:53:54;;;;;;;3.53;1.02;;;;;;;17.79;44.84;99457.16;4958579;28;20392;-77
2023/08/02 08:56:27;;;;;;;6.07;1.35;;;;;;;17.91;45.32;99456.00;4963495;28;20031;-74
2023/08/02 08:58:53;;;;;;;6.38;1.55;;;;;;;17.95;45.73;99445.97;4964241;28;20040;-74
2023/08/02 09:01:19;;;;;;;5.88;1.30;;;;;;;17.81;45.13;99439.34;4978545;28;20038;-76
2023/08/02 09:03:45;;;;;;;4.80;1.10;;;;;;;17.80;45.35;99424.47;4983108;28;20053;-76
2023/08/02 09:06:16;;;;;;;6.15;2.08;;;;;;;17.81;45.99;99426.16;4979465;28;20125;-76
2023/08/02 09:08:47;;;;;;;6.23;1.67;;;;;;;17.58;45.92;99421.19;4977069;28;20359;-76
2023/08/02 09:11:15;;;;;;;4.72;1.55;;;;;;;17.87;45.99;99412.31;4976752;28;20037;-74
2023/08/02 09:13:41;;;;;;;6.82;2.05;;;;;;;17.71;45.21;99407.66;4950974;28;20042;-77
2023/08/02 09:16:11;;;;;;;3.38;1.70;;;;;;;17.28;45.83;99397.56;4960853;28;20034;-73
2023/08/02 09:18:45;;;;;;;4.68;1.88;;;;;;;17.21;45.80;99390.22;4981462;28;20042;-75
2023/08/02 09:21:15;;;;;;;5.00;2.30;;;;;;;17.03;46.39;99391.91;4993534;28;20042;-74
2023/08/02 09:23:48;;;;;;;5.75;1.80;;;;;;;17.10;46.38;99402.72;4970485;28;20810;-76
2023/08/02 09:26:16;;;;;;;5.88;2.20;;;;;;;16.80;47.46;99394.81;4978846;28;20120;-76
2023/08/02 09:29:03;;;;;;;4.78;2.00;;;;;;;16.64;47.39;99394.47;4972107;28;20054;-75
2023/08/02 09:31:29;;;;;;;4.13;1.90;;;;;;;16.63;47.78;99390.16;4984001;28;20097;-74
2023/08/02 09:33:56;;;;;;;3.65;1.92;;;;;;;16.49;47.69;99386.13;4969133;28;20109;-75
2023/08/02 09:36:34;;;;;;;3.47;1.58;;;;;;;16.44;48.04;99384.84;4977233;28;20042;-74
2023/08/02 09:39:01;;;;;;;3.15;1.48;;;;;;;16.58;48.14;99381.84;4974149;28;20074;-75
2023/08/02 09:41:28;;;;;;;6.60;1.75;;;;;;;16.45;48.01;99383.91;4961329;28;20136;-75
2023/08/02 09:43:54;;;;;;;3.38;1.50;;;;;;;15.89;49.45;99386.03;4975790;28;20072;-76
2023/08/02 09:46:33;;;;;;;4.57;1.60;;;;;;;15.89;48.89;99386.03;4982228;28;20034;-76
2023/08/02 09:48:59;;;;;;;4.97;1.75;;;;;;;15.84;49.78;99393.50;4972554;28;20046;-76
2023/08/02 09:51:40;;;;;;;5.70;2.08;;;;;;;15.50;50.30;99388.47;4961215;28;20030;-77
2023/08/02 09:54:07;;;;;;;3.00;1.30;;;;;;;15.51;50.58;99379.59;4978256;28;20131;-75
2023/08/02 09:56:38;;;;;;;10.07;1.58;;;;;;;14.85;53.08;99387.69;4978593;28;20039;-74
2023/08/02 09:59:05;;;;;;;3.95;1.73;;;;;;;14.61;53.82;99372.09;4991029;28;20065;-74
2023/08/02 10:01:35;;;;;;;6.15;1.98;;;;;;;14.16;55.55;99361.66;4975418;28;20038;-76
2023/08/02 10:04:10;;;;;;;5.03;2.13;;;;;;;14.07;56.66;99354.50;4962790;28;20045;-75
2023/08/02 10:06:35;;;;;;;7.15;1.92;;;;;;;14.07;56.25;99367.63;4960208;28;20042;-77
2023/08/02 10:09:05;;;;;;;8.40;2.28;;;;;;;13.99;57.46;99364.78;4976846;28;20774;-76
2023/08/02 10:11:49;;;;;;;5.97;2.20;;;;;;;13.73;58.34;99375.50;4977263;28;20050;-75
2023/08/02 10:14:15;;;;;;;3.35;2.60;;;;;;;13.85;58.66;99371.94;4977129;28;20065;-74
2023/08/02 10:16:44;;;;;;;2.92;2.33;;;;;;;13.73;59.08;99355.34;4974695;28;21045;-76
2023/08/02 10:19:12;;;;;;;6.00;3.53;;;;;;;13.64;59.65;99353.44;4979467;28;20046;-75
2023/08/02 10:21:39;;;;;;;8.65;2.88;;;;;;;13.79;59.17;99337.47;4974196;28;20427;-74
2023/08/02 10:24:05;;;;;;;7.25;2.78;;;;;;;13.69;59.37;99332.91;4976733;28;20047;-75
2023/08/02 10:26:31;;;;;;;6.32;2.85;;;;;;;13.53;59.80;99330.59;4973453;28;20046;-75
2023/08/02 10:28:59;;;;;;;6.00;2.95;;;;;;;13.49;60.16;99336.19;4961345;28;20123;-75
2023/08/02 10:31:26;;;;;;;11.02;6.00;;;;;;;13.25;61.28;99331.88;4979031;28;20038;-75
2023/08/02 10:33:51;;;;;;;6.78;3.38;;;;;;;13.47;60.97;99323.22;4976607;28;20109;-73
2023/08/02 10:36:17;;;;;;;7.15;3.20;;;;;;;13.71;60.20;99319.66;4963091;28;20046;-74
2023/08/02 10:38:42;;;;;;;10.82;3.67;;;;;;;13.97;59.93;99329.94;4976622;28;20077;-75
2023/08/02 10:41:18;;;;;;;11.93;4.75;;;;;;;14.05;60.06;99322.25;4980709;28;20061;-75
2023/08/02 10:43:53;;;;;;;9.80;3.17;;;;;;;14.08;60.16;99311.53;4980213;28;20113;-74
2023/08/02 10:46:22;;;;;;;5.53;3.10;;;;;;;14.04;59.86;99310.09;4966917;28;20046;-75
2023/08/02 10:48:48;;;;;;;10.70;4.20;;;;;;;14.06;59.87;99314.25;4965502;28;20126;-75
2023/08/02 10:51:34;;;;;;;10.32;3.45;;;;;;;13.95;60.36;99301.16;4971949;28;20081;-75
2023/08/02 10:54:16;;;;;;;9.18;3.60;;;;;;;14.18;60.45;99296.66;4982004;28;20081;-73
2023/08/02 10:57:04;;;;;;;8.32;4.13;;;;;;;14.36;59.71;99281.22;4985173;28;20034;-74
2023/08/02 10:59:30;;;;;;;14.23;3.53;;;;;;;14.27;59.83;99282.78;4963372;28;20053;-74
2023/08/02 11:02:07;;;;;;;10.68;3.72;;;;;;;14.25;59.42;99287.34;4968853;28;20169;-76
2023/08/02 11:04:37;;;;;;;7.30;3.60;;;;;;;14.15;60.08;99276.75;4980515;28;20137;-73
2023/08/02 11:07:16;;;;;;;10.55;3.65;;;;;;;14.49;59.91;99279.28;4984651;28;20040;-75
2023/08/02 11:09:43;;;;;;;8.25;3.22;;;;;;;13.86;60.38;99276.44;4995611;28;20096;-78
2023/08/02 11:12:17;;;;;;;12.82;4.05;;;;;;;13.79;60.81;99263.94;4981146;28;20559;-75
2023/08/02 11:14:45;;;;;;;8.18;3.15;;;;;;;14.22;59.99;99256.06;4967832;28;20285;-73
2023/08/02 11:17:11;;;;;;;7.22;3.47;;;;;;;14.02;60.51;99248.97;4966334;28;20046;-75
2023/08/02 11:19:37;;;;;;;8.88;3.00;;;;;;;13.93;60.97;99255.78;4981015;28;21048;-73
2023/08/02 11:22:03;;;;;;;7.10;3.50;;;;;;;13.90;60.90;99245.53;4985522;28;20050;-74
2023/08/02 11:24:40;;;;;;;7.15;3.17;;;;;;;14.35;59.73;99251.47;4997344;28;20049;-75
2023/08/02 11:27:06;;;;;;;8.73;3.70;;;;;;;13.98;60.44;99242.28;4963518;28;20042;-74
2023/08/02 11:29:31;;;;;;;10.65;3.17;;;;;;;14.33;60.30;99227.13;4963650;28;20085;-75
2023/08/02 11:32:02;;;;;;;7.07;3.97;;;;;;;14.60;59.77;99228.44;4980458;28;20045;-75